sensor_id;sensor_type;location;lat;lon;timestamp;pressure;altitude;pressure_sealevel;temperature;humidity
48774;BME280;34576;0.000;0.000;2023-12-20T00:04:55;96787.53;;;17.15;65.33
48774;BME280;34576;0.000;0.000;2023-12-20T00:11:55;96800.56;;;17.27;64.12
48774;BME280;34576;0.000;0.000;2023-12-20T00:18:55;96776.34;;;17.34;65.02
48774;BME280;34576;0.000;0.000;2023-12-20T00:25:56;96762.28;;;17.28;65.72
48774;BME280;34576;0.000;0.000;2023-12-20T00:32:56;96773.97;;;17.32;65.96
48774;BME280;34576;0.000;0.000;2023-12-20T00:39:56;96765.22;;;17.16;66.48
48774;BME280;34576;0.000;0.000;2023-12-20T00:46:57;96778.25;;;17.18;66.04
48774;BME280;34576;0.000;0.000;2023-12-20T00:53:57;96763.06;;;17.29;65.46
48774;BME280;34576;0.000;0.000;2023-12-20T01:00:57;96756.97;;;17.28;66.16
48774;BME280;34576;0.000;0.000;2023-12-20T01:07:58;96765.47;;;17.25;66.17
48774;BME280;34576;0.000;0.000;2023-12-20T01:14:58;96765.19;;;17.42;65.81
48774;BME280;34576;0.000;0.000;2023-12-20T01:21:59;96772.63;;;17.40;65.50
48774;BME280;34576;0.000;0.000;2023-12-20T01:28:59;96764.13;;;17.43;65.45
48774;BME280;34576;0.000;0.000;2023-12-20T01:35:59;96773.69;;;17.44;65.52
48774;BME280;34576;0.000;0.000;2023-12-20T01:43:00;96775.56;;;17.33;65.71
48774;BME280;34576;0.000;0.000;2023-12-20T01:50:01;96782.19;;;17.41;65.57
48774;BME280;34576;0.000;0.000;2023-12-20T01:57:04;96806.69;;;17.43;64.49
48774;BME280;34576;0.000;0.000;2023-12-20T02:04:04;96787.50;;;17.41;65.15
48774;BME280;34576;0.000;0.000;2023-12-20T02:11:05;96792.84;;;17.36;65.32
48774;BME280;34576;0.000;0.000;2023-12-20T02:18:08;96785.13;;;17.39;64.14
48774;BME280;34576;0.000;0.000;2023-12-20T02:25:08;96788.56;;;17.45;64.75
48774;BME280;34576;0.000;0.000;2023-12-20T02:32:09;96775.81;;;17.42;65.18
48774;BME280;34576;0.000;0.000;2023-12-20T02:39:09;96768.34;;;17.44;65.04
48774;BME280;34576;0.000;0.000;2023-12-20T02:46:09;96778.22;;;17.43;64.53
48774;BME280;34576;0.000;0.000;2023-12-20T02:53:10;96771.03;;;17.39;62.52
48774;BME280;34576;0.000;0.000;2023-12-20T03:00:10;96776.06;;;17.46;63.78
48774;BME280;34576;0.000;0.000;2023-12-20T03:07:11;96776.88;;;17.41;65.28
48774;BME280;34576;0.000;0.000;2023-12-20T03:14:12;96786.72;;;17.40;65.87
48774;BME280;34576;0.000;0.000;2023-12-20T03:21:15;96781.94;;;17.48;63.98
48774;BME280;34576;0.000;0.000;2023-12-20T03:28:15;96797.34;;;17.51;63.67
48774;BME280;34576;0.000;0.000;2023-12-20T03:35:16;96810.91;;;17.49;63.17
48774;BME280;34576;0.000;0.000;2023-12-20T03:42:16;96815.44;;;17.49;61.55
48774;BME280;34576;0.000;0.000;2023-12-20T03:49:17;96809.03;;;17.50;61.68
48774;BME280;34576;0.000;0.000;2023-12-20T03:56:17;96823.16;;;17.50;60.77
48774;BME280;34576;0.000;0.000;2023-12-20T04:03:17;96818.34;;;17.47;61.70
48774;BME280;34576;0.000;0.000;2023-12-20T04:10:17;96822.59;;;17.48;61.17
48774;BME280;34576;0.000;0.000;2023-12-20T04:17:18;96816.22;;;17.49;61.19
48774;BME280;34576;0.000;0.000;2023-12-20T04:24:18;96820.47;;;17.40;65.51
48774;BME280;34576;0.000;0.000;2023-12-20T04:31:18;96818.63;;;17.46;65.37
48774;BME280;34576;0.000;0.000;2023-12-20T04:38:19;96846.56;;;17.43;65.86
48774;BME280;34576;0.000;0.000;2023-12-20T04:45:19;96846.28;;;17.50;65.72
48774;BME280;34576;0.000;0.000;2023-12-20T04:52:19;96861.44;;;17.54;65.91
48774;BME280;34576;0.000;0.000;2023-12-20T04:59:20;96862.25;;;17.60;66.94
48774;BME280;34576;0.000;0.000;2023-12-20T05:06:20;96852.38;;;17.60;66.65
48774;BME280;34576;0.000;0.000;2023-12-20T05:13:20;96852.91;;;17.63;67.12
48774;BME280;34576;0.000;0.000;2023-12-20T05:20:21;96855.06;;;17.60;67.98
48774;BME280;34576;0.000;0.000;2023-12-20T05:27:21;96865.16;;;17.64;67.98
48774;BME280;34576;0.000;0.000;2023-12-20T05:34:21;96868.88;;;17.73;68.42
48774;BME280;34576;0.000;0.000;2023-12-20T05:41:21;96883.75;;;17.79;58.11
48774;BME280;34576;0.000;0.000;2023-12-20T05:48:22;96898.25;;;14.36;57.28
48774;BME280;34576;0.000;0.000;2023-12-20T05:55:22;96892.22;;;14.19;55.00
48774;BME280;34576;0.000;0.000;2023-12-20T06:02:23;96898.00;;;16.70;56.82
48774;BME280;34576;0.000;0.000;2023-12-20T06:09:23;96897.81;;;16.92;58.12
48774;BME280;34576;0.000;0.000;2023-12-20T06:16:23;96910.88;;;16.99;59.14
48774;BME280;34576;0.000;0.000;2023-12-20T06:23:24;96911.38;;;17.01;59.99
48774;BME280;34576;0.000;0.000;2023-12-20T06:30:24;96915.38;;;17.03;60.45
48774;BME280;34576;0.000;0.000;2023-12-20T06:37:25;96911.66;;;17.04;60.76
48774;BME280;34576;0.000;0.000;2023-12-20T06:44:25;96922.03;;;17.06;61.24
48774;BME280;34576;0.000;0.000;2023-12-20T06:51:26;96928.66;;;17.08;61.40
48774;BME280;34576;0.000;0.000;2023-12-20T06:58:26;96936.91;;;17.07;61.89
48774;BME280;34576;0.000;0.000;2023-12-20T07:05:26;96943.03;;;17.07;62.10
48774;BME280;34576;0.000;0.000;2023-12-20T07:12:27;96965.09;;;17.08;62.08
48774;BME280;34576;0.000;0.000;2023-12-20T07:19:27;96965.09;;;17.08;62.19
48774;BME280;34576;0.000;0.000;2023-12-20T07:26:27;96981.03;;;17.08;62.18
48774;BME280;34576;0.000;0.000;2023-12-20T07:33:27;96986.88;;;17.05;62.60
48774;BME280;34576;0.000;0.000;2023-12-20T07:40:28;96997.50;;;17.05;62.36
48774;BME280;34576;0.000;0.000;2023-12-20T07:47:28;97004.94;;;17.03;62.40
48774;BME280;34576;0.000;0.000;2023-12-20T07:54:28;96998.81;;;17.02;62.49
48774;BME280;34576;0.000;0.000;2023-12-20T08:01:28;97019.31;;;17.02;62.70
48774;BME280;34576;0.000;0.000;2023-12-20T08:08:29;97009.19;;;16.99;62.61
48774;BME280;34576;0.000;0.000;2023-12-20T08:15:29;97010.25;;;16.98;62.49
48774;BME280;34576;0.000;0.000;2023-12-20T08:22:29;97027.50;;;16.95;62.68
48774;BME280;34576;0.000;0.000;2023-12-20T08:29:30;97020.06;;;16.92;62.88
48774;BME280;34576;0.000;0.000;2023-12-20T08:36:30;97024.31;;;16.93;62.61
48774;BME280;34576;0.000;0.000;2023-12-20T08:43:30;97030.38;;;16.88;62.73
48774;BME280;34576;0.000;0.000;2023-12-20T08:50:31;97043.91;;;16.87;62.84
48774;BME280;34576;0.000;0.000;2023-12-20T08:57:31;97051.59;;;16.83;62.68
48774;BME280;34576;0.000;0.000;2023-12-20T09:04:32;97043.63;;;16.83;62.97
48774;BME280;34576;0.000;0.000;2023-12-20T09:11:32;97055.84;;;16.79;63.01
48774;BME280;34576;0.000;0.000;2023-12-20T09:18:32;97062.19;;;16.78;62.87
48774;BME280;34576;0.000;0.000;2023-12-20T09:25:33;97072.03;;;16.78;62.89
48774;BME280;34576;0.000;0.000;2023-12-20T09:32:33;97076.00;;;16.75;62.89
48774;BME280;34576;0.000;0.000;2023-12-20T09:39:33;97089.53;;;16.73;63.02
48774;BME280;34576;0.000;0.000;2023-12-20T09:46:34;97086.06;;;16.73;62.78
48774;BME280;34576;0.000;0.000;2023-12-20T09:53:35;97084.50;;;16.72;63.00
48774;BME280;34576;0.000;0.000;2023-12-20T10:00:36;97070.91;;;16.68;62.93
48774;BME280;34576;0.000;0.000;2023-12-20T10:07:37;97071.94;;;16.67;63.02
48774;BME280;34576;0.000;0.000;2023-12-20T10:14:38;97081.53;;;16.68;62.91
48774;BME280;34576;0.000;0.000;2023-12-20T10:21:38;97069.81;;;16.64;62.84
48774;BME280;34576;0.000;0.000;2023-12-20T10:28:39;97079.91;;;16.62;63.05
48774;BME280;34576;0.000;0.000;2023-12-20T10:35:39;97073.00;;;16.61;62.98
48774;BME280;34576;0.000;0.000;2023-12-20T10:42:39;97078.03;;;16.58;63.05
48774;BME280;34576;0.000;0.000;2023-12-20T10:49:41;97059.97;;;16.60;62.76
48774;BME280;34576;0.000;0.000;2023-12-20T10:56:41;97062.63;;;16.60;62.62
48774;BME280;34576;0.000;0.000;2023-12-20T11:03:43;97071.91;;;16.57;62.94
48774;BME280;34576;0.000;0.000;2023-12-20T11:17:46;97067.09;;;16.54;62.85
48774;BME280;34576;0.000;0.000;2023-12-20T11:24:47;97058.34;;;16.53;62.91
48774;BME280;34576;0.000;0.000;2023-12-20T11:31:47;97066.84;;;16.55;62.72
48774;BME280;34576;0.000;0.000;2023-12-20T11:38:57;97055.16;;;16.56;62.77
48774;BME280;34576;0.000;0.000;2023-12-20T11:46:02;97051.97;;;16.54;62.83
48774;BME280;34576;0.000;0.000;2023-12-20T11:53:03;97046.66;;;16.54;62.84
48774;BME280;34576;0.000;0.000;2023-12-20T12:00:03;97036.03;;;16.54;62.85
48774;BME280;34576;0.000;0.000;2023-12-20T12:07:12;97033.63;;;16.53;62.92
48774;BME280;34576;0.000;0.000;2023-12-20T12:14:12;97023.81;;;16.53;62.77
48774;BME280;34576;0.000;0.000;2023-12-20T12:21:18;97028.56;;;16.51;62.82
48774;BME280;34576;0.000;0.000;2023-12-20T12:28:18;97034.97;;;16.50;62.79
48774;BME280;34576;0.000;0.000;2023-12-20T12:35:19;97032.78;;;16.47;62.63
48774;BME280;34576;0.000;0.000;2023-12-20T12:42:20;97026.47;;;16.53;62.57
48774;BME280;34576;0.000;0.000;2023-12-20T12:49:21;97031.22;;;16.46;62.71
48774;BME280;34576;0.000;0.000;2023-12-20T12:56:22;97038.94;;;16.48;62.78
48774;BME280;34576;0.000;0.000;2023-12-20T13:03:22;97031.47;;;16.45;62.78
48774;BME280;34576;0.000;0.000;2023-12-20T13:10:22;97022.19;;;16.47;62.60
48774;BME280;34576;0.000;0.000;2023-12-20T13:17:23;97015.53;;;16.45;62.70
48774;BME280;34576;0.000;0.000;2023-12-20T13:24:23;97032.25;;;16.45;62.55
48774;BME280;34576;0.000;0.000;2023-12-20T13:31:23;97024.00;;;16.42;62.59
48774;BME280;34576;0.000;0.000;2023-12-20T13:38:24;97021.84;;;16.38;62.78
48774;BME280;34576;0.000;0.000;2023-12-20T13:45:24;97022.13;;;16.37;62.69
48774;BME280;34576;0.000;0.000;2023-12-20T13:52:25;97021.34;;;16.42;62.63
48774;BME280;34576;0.000;0.000;2023-12-20T13:59:28;97023.47;;;16.39;62.44
48774;BME280;34576;0.000;0.000;2023-12-20T14:06:32;97020.56;;;16.41;62.52
48774;BME280;34576;0.000;0.000;2023-12-20T14:13:32;97014.72;;;16.39;62.58
48774;BME280;34576;0.000;0.000;2023-12-20T14:20:33;97011.50;;;16.37;62.49
48774;BME280;34576;0.000;0.000;2023-12-20T14:27:36;97014.66;;;16.34;62.44
48774;BME280;34576;0.000;0.000;2023-12-20T14:34:36;97003.53;;;16.32;62.65
48774;BME280;34576;0.000;0.000;2023-12-20T14:41:38;97009.63;;;16.32;62.41
48774;BME280;34576;0.000;0.000;2023-12-20T14:48:40;97000.56;;;16.28;62.45
48774;BME280;34576;0.000;0.000;2023-12-20T14:55:40;97005.88;;;16.28;62.62
48774;BME280;34576;0.000;0.000;2023-12-20T15:02:40;96997.06;;;16.22;62.44
48774;BME280;34576;0.000;0.000;2023-12-20T15:09:41;97009.56;;;16.27;62.26
48774;BME280;34576;0.000;0.000;2023-12-20T15:16:46;97027.63;;;16.25;62.37
48774;BME280;34576;0.000;0.000;2023-12-20T15:23:49;97029.72;;;16.23;62.38
48774;BME280;34576;0.000;0.000;2023-12-20T15:30:53;96998.69;;;16.24;62.31
48774;BME280;34576;0.000;0.000;2023-12-20T15:37:53;96999.19;;;16.20;62.16
48774;BME280;34576;0.000;0.000;2023-12-20T15:44:53;96994.41;;;16.22;62.13
48774;BME280;34576;0.000;0.000;2023-12-20T15:51:53;96997.03;;;16.17;62.36
48774;BME280;34576;0.000;0.000;2023-12-20T15:58:54;97016.44;;;16.18;62.09
48774;BME280;34576;0.000;0.000;2023-12-20T16:05:54;97014.03;;;16.16;62.20
48774;BME280;34576;0.000;0.000;2023-12-20T16:12:55;96997.53;;;16.09;62.24
48774;BME280;34576;0.000;0.000;2023-12-20T16:19:55;97004.47;;;16.15;62.20
48774;BME280;34576;0.000;0.000;2023-12-20T16:26:56;97007.13;;;16.15;62.10
48774;BME280;34576;0.000;0.000;2023-12-20T16:33:56;97001.22;;;16.08;62.26
48774;BME280;34576;0.000;0.000;2023-12-20T16:40:56;97001.22;;;16.08;62.19
48774;BME280;34576;0.000;0.000;2023-12-20T16:47:56;97011.06;;;16.08;62.12
48774;BME280;34576;0.000;0.000;2023-12-20T16:54:57;97007.31;;;16.09;62.03
48774;BME280;34576;0.000;0.000;2023-12-20T17:01:57;97017.44;;;16.12;61.94
48774;BME280;34576;0.000;0.000;2023-12-20T17:08:57;97018.75;;;16.09;61.87
48774;BME280;34576;0.000;0.000;2023-12-20T17:15:58;97029.63;;;16.08;61.88
48774;BME280;34576;0.000;0.000;2023-12-20T17:22:58;97024.00;;;16.04;62.09
48774;BME280;34576;0.000;0.000;2023-12-20T17:29:59;97015.03;;;16.10;61.85
48774;BME280;34576;0.000;0.000;2023-12-20T17:36:59;97017.66;;;16.05;61.80
48774;BME280;34576;0.000;0.000;2023-12-20T17:44:00;97021.63;;;16.02;61.93
48774;BME280;34576;0.000;0.000;2023-12-20T17:51:00;97036.69;;;15.97;61.98
48774;BME280;34576;0.000;0.000;2023-12-20T17:58:00;97038.91;;;16.05;61.73
48774;BME280;34576;0.000;0.000;2023-12-20T18:05:01;97029.84;;;16.01;61.86
48774;BME280;34576;0.000;0.000;2023-12-20T18:12:01;97057.50;;;16.10;61.58
48774;BME280;34576;0.000;0.000;2023-12-20T18:19:02;97048.41;;;16.01;61.89
48774;BME280;34576;0.000;0.000;2023-12-20T18:26:02;97045.00;;;16.05;61.55
48774;BME280;34576;0.000;0.000;2023-12-20T18:33:02;97054.50;;;16.01;61.55
48774;BME280;34576;0.000;0.000;2023-12-20T18:40:03;97055.91;;;16.09;62.10
48774;BME280;34576;0.000;0.000;2023-12-20T18:47:03;97048.22;;;16.08;62.20
48774;BME280;34576;0.000;0.000;2023-12-20T18:54:04;97030.94;;;16.10;62.13
48774;BME280;34576;0.000;0.000;2023-12-20T19:01:04;97015.84;;;16.11;62.09
48774;BME280;34576;0.000;0.000;2023-12-20T19:08:04;97023.56;;;16.12;61.69
48774;BME280;34576;0.000;0.000;2023-12-20T19:15:05;97021.94;;;16.11;61.58
48774;BME280;34576;0.000;0.000;2023-12-20T19:22:05;97013.97;;;16.11;61.44
48774;BME280;34576;0.000;0.000;2023-12-20T19:29:06;96994.88;;;16.09;61.56
48774;BME280;34576;0.000;0.000;2023-12-20T19:36:06;96974.19;;;16.11;61.26
48774;BME280;34576;0.000;0.000;2023-12-20T19:43:07;96967.78;;;16.07;61.31
48774;BME280;34576;0.000;0.000;2023-12-20T19:50:10;96951.59;;;16.09;61.22
48774;BME280;34576;0.000;0.000;2023-12-20T19:57:10;96948.69;;;16.10;61.13
48774;BME280;34576;0.000;0.000;2023-12-20T20:04:11;96953.47;;;16.08;61.23
48774;BME280;34576;0.000;0.000;2023-12-20T20:11:11;96955.31;;;16.08;61.24
48774;BME280;34576;0.000;0.000;2023-12-20T20:18:12;96943.91;;;16.07;61.30
48774;BME280;34576;0.000;0.000;2023-12-20T20:25:13;96920.84;;;16.08;61.25
48774;BME280;34576;0.000;0.000;2023-12-20T20:32:13;96899.59;;;16.08;61.27
48774;BME280;34576;0.000;0.000;2023-12-20T20:39:13;96893.50;;;16.12;61.00
48774;BME280;34576;0.000;0.000;2023-12-20T20:46:16;96898.88;;;16.22;60.77
48774;BME280;34576;0.000;0.000;2023-12-20T20:53:19;96921.72;;;16.24;60.85
48774;BME280;34576;0.000;0.000;2023-12-20T21:00:22;96908.97;;;16.26;61.06
48774;BME280;34576;0.000;0.000;2023-12-20T21:07:24;96926.25;;;16.28;60.97
48774;BME280;34576;0.000;0.000;2023-12-20T21:14:25;96911.09;;;16.29;61.16
48774;BME280;34576;0.000;0.000;2023-12-20T21:21:25;96914.31;;;16.31;60.92
48774;BME280;34576;0.000;0.000;2023-12-20T21:28:26;96898.13;;;16.32;60.94
48774;BME280;34576;0.000;0.000;2023-12-20T21:35:26;96882.72;;;16.34;61.09
48774;BME280;34576;0.000;0.000;2023-12-20T21:42:26;96881.97;;;16.44;61.15
48774;BME280;34576;0.000;0.000;2023-12-20T21:49:27;96880.13;;;16.50;61.21
48774;BME280;34576;0.000;0.000;2023-12-20T21:56:27;96858.09;;;16.49;61.73
48774;BME280;34576;0.000;0.000;2023-12-20T22:03:27;96854.91;;;16.52;61.95
48774;BME280;34576;0.000;0.000;2023-12-20T22:10:28;96852.25;;;16.52;61.89
48774;BME280;34576;0.000;0.000;2023-12-20T22:17:28;96840.38;;;16.70;62.00
48774;BME280;34576;0.000;0.000;2023-12-20T22:24:29;96845.34;;;16.51;63.78
48774;BME280;34576;0.000;0.000;2023-12-20T22:31:29;96845.63;;;16.50;64.32
48774;BME280;34576;0.000;0.000;2023-12-20T22:38:29;96825.69;;;16.47;64.49
48774;BME280;34576;0.000;0.000;2023-12-20T22:45:32;96818.53;;;16.48;64.97
48774;BME280;34576;0.000;0.000;2023-12-20T22:52:35;96811.88;;;16.45;64.88
48774;BME280;34576;0.000;0.000;2023-12-20T22:59:35;96819.59;;;16.47;64.91
48774;BME280;34576;0.000;0.000;2023-12-20T23:06:35;96815.31;;;16.46;65.02
48774;BME280;34576;0.000;0.000;2023-12-20T23:13:35;96803.91;;;16.45;65.33
48774;BME280;34576;0.000;0.000;2023-12-20T23:20:36;96787.47;;;16.48;65.48
48774;BME280;34576;0.000;0.000;2023-12-20T23:27:36;96767.00;;;16.49;65.63
48774;BME280;34576;0.000;0.000;2023-12-20T23:34:37;96753.50;;;16.50;65.52
48774;BME280;34576;0.000;0.000;2023-12-20T23:41:37;96738.06;;;16.47;65.72
48774;BME280;34576;0.000;0.000;2023-12-20T23:48:38;96700.88;;;16.47;65.76
48774;BME280;34576;0.000;0.000;2023-12-20T23:55:38;96692.66;;;16.49;65.64
